Maple Lake, Minnesota
Current Conditions -  °F | °C
As of 3:55 AM on Saturday 01 Nov 2014 (Local Time) from KMGG Reporting Station
Clear Clear  
Wind Chill: -4°   Ceiling: Unl
Heat Index: -4°   Visibility: 10mi
Dew Point: -7°   Wind: 0mph
Humidity: 79%   Direction: NA
Pressure: 30.44"   Gusts: NA
Location:  45.23°N, 94°W
Report Text: KMGG 010855Z AUTO 00000KT 10SM CLR M04/M07 A3044 RMK AO2 T10401071
Loading
Personal Weather Stations






























Interactive Weather Map
Tropical Storm Tracking
New forecast layout! Learn more

10-Day Weather Forecast

Advertisements
Track Severe Weather on mobile